sensor_id;sensor_type;location;lat;lon;timestamp;P1;durP1;ratioP1;P2;durP2;ratioP2
37485;SDS011;23341;50.296;18.960;2023-02-22T00:02:17;56.28;;;21.48;;
37485;SDS011;23341;50.296;18.960;2023-02-22T00:07:30;71.47;;;23.45;;
37485;SDS011;23341;50.296;18.960;2023-02-22T00:12:36;124.03;;;45.13;;
37485;SDS011;23341;50.296;18.960;2023-02-22T00:17:40;51.75;;;21.23;;
37485;SDS011;23341;50.296;18.960;2023-02-22T00:22:45;98.88;;;35.28;;
37485;SDS011;23341;50.296;18.960;2023-02-22T00:27:53;160.73;;;52.15;;
37485;SDS011;23341;50.296;18.960;2023-02-22T00:32:58;139.63;;;45.97;;
37485;SDS011;23341;50.296;18.960;2023-02-22T00:38:03;72.88;;;24.73;;
37485;SDS011;23341;50.296;18.960;2023-02-22T00:43:09;75.22;;;27.35;;
37485;SDS011;23341;50.296;18.960;2023-02-22T00:48:15;54.47;;;21.10;;
37485;SDS011;23341;50.296;18.960;2023-02-22T00:53:20;70.43;;;26.63;;
37485;SDS011;23341;50.296;18.960;2023-02-22T00:58:27;70.07;;;24.52;;
37485;SDS011;23341;50.296;18.960;2023-02-22T01:03:32;69.50;;;27.23;;
37485;SDS011;23341;50.296;18.960;2023-02-22T01:08:36;75.57;;;27.88;;
37485;SDS011;23341;50.296;18.960;2023-02-22T01:13:42;96.55;;;38.60;;
37485;SDS011;23341;50.296;18.960;2023-02-22T01:18:48;97.95;;;44.30;;
37485;SDS011;23341;50.296;18.960;2023-02-22T01:23:52;90.85;;;44.45;;
37485;SDS011;23341;50.296;18.960;2023-02-22T01:28:58;75.75;;;31.27;;
37485;SDS011;23341;50.296;18.960;2023-02-22T01:34:03;82.03;;;33.00;;
37485;SDS011;23341;50.296;18.960;2023-02-22T01:39:07;129.63;;;57.75;;
37485;SDS011;23341;50.296;18.960;2023-02-22T01:44:24;93.45;;;38.65;;
37485;SDS011;23341;50.296;18.960;2023-02-22T01:49:34;70.53;;;28.48;;
37485;SDS011;23341;50.296;18.960;2023-02-22T01:54:42;65.80;;;26.92;;
37485;SDS011;23341;50.296;18.960;2023-02-22T01:59:53;63.25;;;25.13;;
37485;SDS011;23341;50.296;18.960;2023-02-22T02:05:01;78.70;;;28.33;;
37485;SDS011;23341;50.296;18.960;2023-02-22T02:10:10;81.65;;;30.25;;
37485;SDS011;23341;50.296;18.960;2023-02-22T02:15:22;61.30;;;23.47;;
37485;SDS011;23341;50.296;18.960;2023-02-22T02:20:31;76.45;;;25.38;;
37485;SDS011;23341;50.296;18.960;2023-02-22T02:26:01;71.05;;;27.77;;
37485;SDS011;23341;50.296;18.960;2023-02-22T02:37:20;50.65;;;19.45;;
37485;SDS011;23341;50.296;18.960;2023-02-22T02:42:33;53.40;;;20.50;;
37485;SDS011;23341;50.296;18.960;2023-02-22T02:47:44;49.13;;;20.45;;
37485;SDS011;23341;50.296;18.960;2023-02-22T02:52:54;60.60;;;21.20;;
37485;SDS011;23341;50.296;18.960;2023-02-22T02:58:04;51.63;;;22.88;;
37485;SDS011;23341;50.296;18.960;2023-02-22T03:03:16;67.65;;;27.08;;
37485;SDS011;23341;50.296;18.960;2023-02-22T03:08:39;63.97;;;26.10;;
37485;SDS011;23341;50.296;18.960;2023-02-22T03:13:49;52.38;;;22.15;;
37485;SDS011;23341;50.296;18.960;2023-02-22T03:19:03;61.50;;;24.98;;
37485;SDS011;23341;50.296;18.960;2023-02-22T03:24:16;52.72;;;22.58;;
37485;SDS011;23341;50.296;18.960;2023-02-22T03:29:25;64.30;;;26.70;;
37485;SDS011;23341;50.296;18.960;2023-02-22T03:34:39;56.10;;;26.13;;
37485;SDS011;23341;50.296;18.960;2023-02-22T03:39:50;64.22;;;25.13;;
37485;SDS011;23341;50.296;18.960;2023-02-22T03:44:57;72.70;;;30.77;;
37485;SDS011;23341;50.296;18.960;2023-02-22T03:50:05;71.47;;;28.15;;
37485;SDS011;23341;50.296;18.960;2023-02-22T04:00:21;73.82;;;27.40;;
37485;SDS011;23341;50.296;18.960;2023-02-22T04:05:27;72.85;;;29.73;;
37485;SDS011;23341;50.296;18.960;2023-02-22T04:10:34;64.07;;;28.02;;
37485;SDS011;23341;50.296;18.960;2023-02-22T04:15:39;65.25;;;29.48;;
37485;SDS011;23341;50.296;18.960;2023-02-22T04:20:45;69.07;;;28.38;;
37485;SDS011;23341;50.296;18.960;2023-02-22T04:26:03;65.75;;;27.73;;
37485;SDS011;23341;50.296;18.960;2023-02-22T04:31:08;64.80;;;28.05;;
37485;SDS011;23341;50.296;18.960;2023-02-22T04:36:13;85.72;;;32.05;;
37485;SDS011;23341;50.296;18.960;2023-02-22T04:41:20;71.20;;;29.15;;
37485;SDS011;23341;50.296;18.960;2023-02-22T04:46:27;69.95;;;31.30;;
37485;SDS011;23341;50.296;18.960;2023-02-22T04:51:33;84.30;;;35.53;;
37485;SDS011;23341;50.296;18.960;2023-02-22T04:56:45;72.18;;;31.35;;
37485;SDS011;23341;50.296;18.960;2023-02-22T05:01:50;74.13;;;30.85;;
37485;SDS011;23341;50.296;18.960;2023-02-22T05:06:55;85.47;;;36.53;;
37485;SDS011;23341;50.296;18.960;2023-02-22T05:12:00;80.28;;;35.90;;
37485;SDS011;23341;50.296;18.960;2023-02-22T05:17:05;82.85;;;37.10;;
37485;SDS011;23341;50.296;18.960;2023-02-22T05:22:09;78.88;;;34.90;;
37485;SDS011;23341;50.296;18.960;2023-02-22T05:27:15;70.03;;;33.90;;
37485;SDS011;23341;50.296;18.960;2023-02-22T05:32:19;77.90;;;37.83;;
37485;SDS011;23341;50.296;18.960;2023-02-22T05:37:23;78.80;;;35.53;;
37485;SDS011;23341;50.296;18.960;2023-02-22T05:42:30;99.05;;;39.40;;
37485;SDS011;23341;50.296;18.960;2023-02-22T05:47:34;78.10;;;38.35;;
37485;SDS011;23341;50.296;18.960;2023-02-22T05:52:38;87.43;;;40.85;;
37485;SDS011;23341;50.296;18.960;2023-02-22T05:57:45;123.53;;;49.50;;
37485;SDS011;23341;50.296;18.960;2023-02-22T06:02:54;90.40;;;43.50;;
37485;SDS011;23341;50.296;18.960;2023-02-22T06:07:59;73.97;;;42.47;;
37485;SDS011;23341;50.296;18.960;2023-02-22T06:13:05;81.97;;;41.95;;
37485;SDS011;23341;50.296;18.960;2023-02-22T06:18:10;156.55;;;65.10;;
37485;SDS011;23341;50.296;18.960;2023-02-22T06:23:14;90.47;;;46.17;;
37485;SDS011;23341;50.296;18.960;2023-02-22T06:28:20;95.00;;;48.50;;
37485;SDS011;23341;50.296;18.960;2023-02-22T06:33:25;112.20;;;51.03;;
37485;SDS011;23341;50.296;18.960;2023-02-22T06:38:30;104.80;;;48.78;;
37485;SDS011;23341;50.296;18.960;2023-02-22T06:43:36;89.85;;;45.42;;
37485;SDS011;23341;50.296;18.960;2023-02-22T06:48:40;88.97;;;40.90;;
37485;SDS011;23341;50.296;18.960;2023-02-22T06:53:45;97.18;;;40.42;;
37485;SDS011;23341;50.296;18.960;2023-02-22T06:58:52;105.15;;;46.13;;
37485;SDS011;23341;50.296;18.960;2023-02-22T07:03:57;127.47;;;50.83;;
37485;SDS011;23341;50.296;18.960;2023-02-22T07:09:01;116.82;;;46.55;;
37485;SDS011;23341;50.296;18.960;2023-02-22T07:14:08;99.53;;;45.17;;
37485;SDS011;23341;50.296;18.960;2023-02-22T07:19:12;99.82;;;40.40;;
37485;SDS011;23341;50.296;18.960;2023-02-22T07:24:17;96.80;;;41.13;;
37485;SDS011;23341;50.296;18.960;2023-02-22T07:29:23;87.25;;;40.47;;
37485;SDS011;23341;50.296;18.960;2023-02-22T07:34:27;88.78;;;38.78;;
37485;SDS011;23341;50.296;18.960;2023-02-22T07:39:32;79.97;;;42.10;;
37485;SDS011;23341;50.296;18.960;2023-02-22T07:44:39;101.35;;;36.75;;
37485;SDS011;23341;50.296;18.960;2023-02-22T07:49:43;79.15;;;35.78;;
37485;SDS011;23341;50.296;18.960;2023-02-22T07:54:48;100.30;;;41.80;;
37485;SDS011;23341;50.296;18.960;2023-02-22T07:59:53;79.57;;;32.17;;
37485;SDS011;23341;50.296;18.960;2023-02-22T08:04:58;67.63;;;30.88;;
37485;SDS011;23341;50.296;18.960;2023-02-22T08:10:03;75.63;;;29.67;;
37485;SDS011;23341;50.296;18.960;2023-02-22T08:15:14;98.45;;;31.55;;
37485;SDS011;23341;50.296;18.960;2023-02-22T08:20:20;79.15;;;32.28;;
37485;SDS011;23341;50.296;18.960;2023-02-22T08:25:26;61.00;;;30.05;;
37485;SDS011;23341;50.296;18.960;2023-02-22T08:30:33;75.05;;;31.85;;
37485;SDS011;23341;50.296;18.960;2023-02-22T08:35:41;68.75;;;30.88;;
37485;SDS011;23341;50.296;18.960;2023-02-22T08:40:46;130.30;;;56.22;;
37485;SDS011;23341;50.296;18.960;2023-02-22T08:45:53;59.88;;;27.85;;
37485;SDS011;23341;50.296;18.960;2023-02-22T08:50:59;70.93;;;26.77;;
37485;SDS011;23341;50.296;18.960;2023-02-22T08:56:03;88.40;;;36.63;;
37485;SDS011;23341;50.296;18.960;2023-02-22T09:01:10;67.32;;;26.77;;
37485;SDS011;23341;50.296;18.960;2023-02-22T09:06:23;76.20;;;30.73;;
37485;SDS011;23341;50.296;18.960;2023-02-22T09:11:27;74.82;;;31.45;;
37485;SDS011;23341;50.296;18.960;2023-02-22T09:16:34;67.32;;;27.15;;
37485;SDS011;23341;50.296;18.960;2023-02-22T09:21:39;73.15;;;32.15;;
37485;SDS011;23341;50.296;18.960;2023-02-22T09:26:45;69.15;;;34.72;;
37485;SDS011;23341;50.296;18.960;2023-02-22T09:31:56;63.00;;;29.48;;
37485;SDS011;23341;50.296;18.960;2023-02-22T09:37:01;69.22;;;31.85;;
37485;SDS011;23341;50.296;18.960;2023-02-22T09:42:08;69.63;;;30.30;;
37485;SDS011;23341;50.296;18.960;2023-02-22T09:52:23;59.58;;;27.00;;
37485;SDS011;23341;50.296;18.960;2023-02-22T09:57:31;65.05;;;27.25;;
37485;SDS011;23341;50.296;18.960;2023-02-22T10:02:45;67.10;;;27.20;;
37485;SDS011;23341;50.296;18.960;2023-02-22T10:07:57;44.42;;;21.67;;
37485;SDS011;23341;50.296;18.960;2023-02-22T10:13:09;61.70;;;22.48;;
37485;SDS011;23341;50.296;18.960;2023-02-22T10:18:31;78.43;;;29.98;;
37485;SDS011;23341;50.296;18.960;2023-02-22T10:23:52;53.47;;;22.27;;
37485;SDS011;23341;50.296;18.960;2023-02-22T10:29:05;41.47;;;20.02;;
37485;SDS011;23341;50.296;18.960;2023-02-22T10:34:22;45.55;;;18.45;;
37485;SDS011;23341;50.296;18.960;2023-02-22T10:39:29;50.70;;;22.00;;
37485;SDS011;23341;50.296;18.960;2023-02-22T10:44:35;50.05;;;17.90;;
37485;SDS011;23341;50.296;18.960;2023-02-22T10:49:43;39.65;;;15.75;;
37485;SDS011;23341;50.296;18.960;2023-02-22T10:54:53;53.72;;;18.48;;
37485;SDS011;23341;50.296;18.960;2023-02-22T11:00:17;36.35;;;15.05;;
37485;SDS011;23341;50.296;18.960;2023-02-22T11:05:32;46.88;;;16.02;;
37485;SDS011;23341;50.296;18.960;2023-02-22T11:10:39;38.53;;;15.85;;
37485;SDS011;23341;50.296;18.960;2023-02-22T11:15:44;93.93;;;42.33;;
37485;SDS011;23341;50.296;18.960;2023-02-22T11:20:50;77.68;;;32.05;;
37485;SDS011;23341;50.296;18.960;2023-02-22T11:26:05;40.30;;;16.92;;
37485;SDS011;23341;50.296;18.960;2023-02-22T11:31:12;28.65;;;11.80;;
37485;SDS011;23341;50.296;18.960;2023-02-22T11:36:34;39.00;;;13.20;;
37485;SDS011;23341;50.296;18.960;2023-02-22T11:41:43;30.25;;;12.20;;
37485;SDS011;23341;50.296;18.960;2023-02-22T11:46:47;61.33;;;19.95;;
37485;SDS011;23341;50.296;18.960;2023-02-22T11:57:32;29.92;;;12.18;;
37485;SDS011;23341;50.296;18.960;2023-02-22T12:02:58;44.17;;;18.42;;
37485;SDS011;23341;50.296;18.960;2023-02-22T12:08:19;20.90;;;8.85;;
37485;SDS011;23341;50.296;18.960;2023-02-22T12:13:36;18.30;;;7.65;;
37485;SDS011;23341;50.296;18.960;2023-02-22T12:18:57;30.95;;;12.38;;
37485;SDS011;23341;50.296;18.960;2023-02-22T12:24:16;173.68;;;70.40;;
37485;SDS011;23341;50.296;18.960;2023-02-22T12:29:27;27.77;;;12.40;;
37485;SDS011;23341;50.296;18.960;2023-02-22T12:34:39;40.25;;;16.08;;
37485;SDS011;23341;50.296;18.960;2023-02-22T12:39:52;25.70;;;10.55;;
37485;SDS011;23341;50.296;18.960;2023-02-22T12:45:03;37.53;;;12.18;;
37485;SDS011;23341;50.296;18.960;2023-02-22T12:50:19;35.78;;;13.55;;
37485;SDS011;23341;50.296;18.960;2023-02-22T12:55:27;41.92;;;17.33;;
37485;SDS011;23341;50.296;18.960;2023-02-22T13:00:38;31.90;;;13.23;;
37485;SDS011;23341;50.296;18.960;2023-02-22T13:05:48;33.70;;;14.98;;
37485;SDS011;23341;50.296;18.960;2023-02-22T13:11:03;36.83;;;14.82;;
37485;SDS011;23341;50.296;18.960;2023-02-22T13:16:21;26.98;;;10.98;;
37485;SDS011;23341;50.296;18.960;2023-02-22T13:21:40;45.08;;;18.08;;
37485;SDS011;23341;50.296;18.960;2023-02-22T13:26:53;40.67;;;17.52;;
37485;SDS011;23341;50.296;18.960;2023-02-22T13:32:15;36.03;;;16.45;;
37485;SDS011;23341;50.296;18.960;2023-02-22T13:37:40;25.65;;;12.23;;
37485;SDS011;23341;50.296;18.960;2023-02-22T13:43:13;22.85;;;8.35;;
37485;SDS011;23341;50.296;18.960;2023-02-22T13:48:37;19.73;;;8.25;;
37485;SDS011;23341;50.296;18.960;2023-02-22T13:53:57;19.35;;;7.43;;
37485;SDS011;23341;50.296;18.960;2023-02-22T13:59:19;133.27;;;46.80;;
37485;SDS011;23341;50.296;18.960;2023-02-22T14:04:35;578.75;;;221.93;;
37485;SDS011;23341;50.296;18.960;2023-02-22T14:09:44;650.40;;;246.65;;
37485;SDS011;23341;50.296;18.960;2023-02-22T14:20:32;67.75;;;26.20;;
37485;SDS011;23341;50.296;18.960;2023-02-22T14:25:39;99.53;;;49.20;;
37485;SDS011;23341;50.296;18.960;2023-02-22T14:30:46;51.35;;;22.90;;
37485;SDS011;23341;50.296;18.960;2023-02-22T14:35:51;89.43;;;41.22;;
37485;SDS011;23341;50.296;18.960;2023-02-22T14:40:55;48.30;;;24.95;;
37485;SDS011;23341;50.296;18.960;2023-02-22T14:46:07;75.10;;;51.27;;
37485;SDS011;23341;50.296;18.960;2023-02-22T14:51:16;23.90;;;9.25;;
37485;SDS011;23341;50.296;18.960;2023-02-22T14:56:28;20.02;;;8.10;;
37485;SDS011;23341;50.296;18.960;2023-02-22T15:01:42;30.90;;;8.27;;
37485;SDS011;23341;50.296;18.960;2023-02-22T15:07:08;26.65;;;10.15;;
37485;SDS011;23341;50.296;18.960;2023-02-22T15:12:26;25.13;;;12.30;;
37485;SDS011;23341;50.296;18.960;2023-02-22T15:17:33;15.33;;;8.40;;
37485;SDS011;23341;50.296;18.960;2023-02-22T15:22:37;25.77;;;9.27;;
37485;SDS011;23341;50.296;18.960;2023-02-22T15:27:43;23.63;;;9.18;;
37485;SDS011;23341;50.296;18.960;2023-02-22T15:32:50;20.98;;;7.90;;
37485;SDS011;23341;50.296;18.960;2023-02-22T15:38:10;26.23;;;8.88;;
37485;SDS011;23341;50.296;18.960;2023-02-22T15:43:22;18.92;;;8.70;;
37485;SDS011;23341;50.296;18.960;2023-02-22T15:48:31;27.58;;;11.98;;
37485;SDS011;23341;50.296;18.960;2023-02-22T15:53:39;32.28;;;11.68;;
37485;SDS011;23341;50.296;18.960;2023-02-22T15:58:46;30.90;;;14.90;;
37485;SDS011;23341;50.296;18.960;2023-02-22T16:03:53;34.90;;;16.80;;
37485;SDS011;23341;50.296;18.960;2023-02-22T16:09:00;35.47;;;13.60;;
37485;SDS011;23341;50.296;18.960;2023-02-22T16:14:25;64.82;;;26.27;;
37485;SDS011;23341;50.296;18.960;2023-02-22T16:19:37;39.70;;;16.85;;
37485;SDS011;23341;50.296;18.960;2023-02-22T16:24:44;47.30;;;19.05;;
37485;SDS011;23341;50.296;18.960;2023-02-22T16:30:04;110.75;;;42.97;;
37485;SDS011;23341;50.296;18.960;2023-02-22T16:35:27;154.77;;;60.53;;
37485;SDS011;23341;50.296;18.960;2023-02-22T16:40:32;109.38;;;45.72;;
37485;SDS011;23341;50.296;18.960;2023-02-22T16:45:38;83.22;;;36.08;;
37485;SDS011;23341;50.296;18.960;2023-02-22T16:50:45;76.07;;;34.17;;
37485;SDS011;23341;50.296;18.960;2023-02-22T16:55:53;60.15;;;26.00;;
37485;SDS011;23341;50.296;18.960;2023-02-22T17:01:02;55.13;;;23.60;;
37485;SDS011;23341;50.296;18.960;2023-02-22T17:06:08;45.08;;;19.88;;
37485;SDS011;23341;50.296;18.960;2023-02-22T17:11:13;44.38;;;20.92;;
37485;SDS011;23341;50.296;18.960;2023-02-22T17:16:17;54.92;;;20.98;;
37485;SDS011;23341;50.296;18.960;2023-02-22T17:21:24;43.33;;;20.65;;
37485;SDS011;23341;50.296;18.960;2023-02-22T17:26:29;47.20;;;21.15;;
37485;SDS011;23341;50.296;18.960;2023-02-22T17:31:33;63.00;;;23.80;;
37485;SDS011;23341;50.296;18.960;2023-02-22T17:36:39;57.33;;;27.25;;
37485;SDS011;23341;50.296;18.960;2023-02-22T17:41:44;59.97;;;25.23;;
37485;SDS011;23341;50.296;18.960;2023-02-22T17:46:49;59.00;;;23.00;;
37485;SDS011;23341;50.296;18.960;2023-02-22T17:51:55;49.45;;;22.02;;
37485;SDS011;23341;50.296;18.960;2023-02-22T17:57:00;79.32;;;31.45;;
37485;SDS011;23341;50.296;18.960;2023-02-22T18:02:04;64.20;;;31.35;;
37485;SDS011;23341;50.296;18.960;2023-02-22T18:07:10;74.55;;;34.20;;
37485;SDS011;23341;50.296;18.960;2023-02-22T18:12:15;69.20;;;32.00;;
37485;SDS011;23341;50.296;18.960;2023-02-22T18:17:20;65.13;;;33.40;;
37485;SDS011;23341;50.296;18.960;2023-02-22T18:22:25;76.47;;;35.83;;
37485;SDS011;23341;50.296;18.960;2023-02-22T18:27:30;69.93;;;33.67;;
37485;SDS011;23341;50.296;18.960;2023-02-22T18:32:34;63.65;;;32.03;;
37485;SDS011;23341;50.296;18.960;2023-02-22T18:37:40;74.97;;;33.97;;
37485;SDS011;23341;50.296;18.960;2023-02-22T18:42:45;72.28;;;35.65;;
37485;SDS011;23341;50.296;18.960;2023-02-22T18:47:50;90.65;;;36.30;;
37485;SDS011;23341;50.296;18.960;2023-02-22T18:52:55;94.95;;;44.58;;
37485;SDS011;23341;50.296;18.960;2023-02-22T18:58:00;78.93;;;38.25;;
37485;SDS011;23341;50.296;18.960;2023-02-22T19:03:07;86.25;;;39.55;;
37485;SDS011;23341;50.296;18.960;2023-02-22T19:08:13;75.97;;;37.10;;
37485;SDS011;23341;50.296;18.960;2023-02-22T19:13:17;91.65;;;41.28;;
37485;SDS011;23341;50.296;18.960;2023-02-22T19:18:22;83.47;;;39.90;;
37485;SDS011;23341;50.296;18.960;2023-02-22T19:23:28;83.82;;;39.70;;
37485;SDS011;23341;50.296;18.960;2023-02-22T19:28:37;86.70;;;38.55;;
37485;SDS011;23341;50.296;18.960;2023-02-22T19:33:41;79.47;;;37.67;;
37485;SDS011;23341;50.296;18.960;2023-02-22T19:38:47;69.55;;;34.78;;
37485;SDS011;23341;50.296;18.960;2023-02-22T19:43:52;80.80;;;38.38;;
37485;SDS011;23341;50.296;18.960;2023-02-22T19:48:57;100.53;;;46.20;;
37485;SDS011;23341;50.296;18.960;2023-02-22T19:54:05;129.68;;;55.13;;
37485;SDS011;23341;50.296;18.960;2023-02-22T19:59:14;131.23;;;62.53;;
37485;SDS011;23341;50.296;18.960;2023-02-22T20:04:23;135.70;;;64.53;;
37485;SDS011;23341;50.296;18.960;2023-02-22T20:09:33;137.50;;;60.75;;
37485;SDS011;23341;50.296;18.960;2023-02-22T20:14:41;122.70;;;55.38;;
37485;SDS011;23341;50.296;18.960;2023-02-22T20:19:46;132.07;;;56.10;;
37485;SDS011;23341;50.296;18.960;2023-02-22T20:24:53;149.45;;;57.28;;
37485;SDS011;23341;50.296;18.960;2023-02-22T20:29:57;122.57;;;55.40;;
37485;SDS011;23341;50.296;18.960;2023-02-22T20:35:02;146.07;;;55.60;;
37485;SDS011;23341;50.296;18.960;2023-02-22T20:40:09;128.88;;;52.97;;
37485;SDS011;23341;50.296;18.960;2023-02-22T20:45:13;236.65;;;90.60;;
37485;SDS011;23341;50.296;18.960;2023-02-22T20:50:21;221.70;;;83.55;;
37485;SDS011;23341;50.296;18.960;2023-02-22T20:55:27;493.48;;;207.77;;
37485;SDS011;23341;50.296;18.960;2023-02-22T21:00:32;353.23;;;171.43;;
37485;SDS011;23341;50.296;18.960;2023-02-22T21:05:40;672.03;;;340.92;;
37485;SDS011;23341;50.296;18.960;2023-02-22T21:10:47;186.82;;;82.18;;
37485;SDS011;23341;50.296;18.960;2023-02-22T21:15:51;161.02;;;67.38;;
37485;SDS011;23341;50.296;18.960;2023-02-22T21:20:56;144.50;;;61.35;;
37485;SDS011;23341;50.296;18.960;2023-02-22T21:26:06;133.60;;;60.40;;
37485;SDS011;23341;50.296;18.960;2023-02-22T21:31:17;118.10;;;47.53;;
37485;SDS011;23341;50.296;18.960;2023-02-22T21:36:24;124.18;;;56.22;;
37485;SDS011;23341;50.296;18.960;2023-02-22T21:41:30;117.00;;;51.78;;
37485;SDS011;23341;50.296;18.960;2023-02-22T21:46:36;120.13;;;52.70;;
37485;SDS011;23341;50.296;18.960;2023-02-22T21:51:40;117.70;;;52.67;;
37485;SDS011;23341;50.296;18.960;2023-02-22T21:56:47;126.90;;;53.03;;
37485;SDS011;23341;50.296;18.960;2023-02-22T22:01:52;296.25;;;95.53;;
37485;SDS011;23341;50.296;18.960;2023-02-22T22:06:58;494.98;;;167.55;;
37485;SDS011;23341;50.296;18.960;2023-02-22T22:12:07;267.30;;;94.43;;
37485;SDS011;23341;50.296;18.960;2023-02-22T22:17:13;239.23;;;87.38;;
37485;SDS011;23341;50.296;18.960;2023-02-22T22:22:17;277.75;;;101.40;;
37485;SDS011;23341;50.296;18.960;2023-02-22T22:27:23;224.27;;;81.60;;
37485;SDS011;23341;50.296;18.960;2023-02-22T22:32:27;365.17;;;132.23;;
37485;SDS011;23341;50.296;18.960;2023-02-22T22:37:32;112.68;;;43.38;;
37485;SDS011;23341;50.296;18.960;2023-02-22T22:42:37;178.02;;;70.50;;
37485;SDS011;23341;50.296;18.960;2023-02-22T22:47:42;180.98;;;66.72;;
37485;SDS011;23341;50.296;18.960;2023-02-22T22:52:48;242.80;;;91.57;;
37485;SDS011;23341;50.296;18.960;2023-02-22T22:57:53;92.80;;;37.75;;
37485;SDS011;23341;50.296;18.960;2023-02-22T23:03:00;176.10;;;68.18;;
37485;SDS011;23341;50.296;18.960;2023-02-22T23:08:07;86.28;;;34.95;;
37485;SDS011;23341;50.296;18.960;2023-02-22T23:13:15;152.02;;;53.33;;
37485;SDS011;23341;50.296;18.960;2023-02-22T23:18:21;154.20;;;56.75;;
37485;SDS011;23341;50.296;18.960;2023-02-22T23:23:25;92.55;;;38.42;;
37485;SDS011;23341;50.296;18.960;2023-02-22T23:28:32;122.70;;;46.28;;
37485;SDS011;23341;50.296;18.960;2023-02-22T23:33:36;140.88;;;54.50;;
37485;SDS011;23341;50.296;18.960;2023-02-22T23:38:41;151.15;;;57.17;;
37485;SDS011;23341;50.296;18.960;2023-02-22T23:43:46;80.90;;;34.25;;
37485;SDS011;23341;50.296;18.960;2023-02-22T23:48:53;170.45;;;64.60;;
37485;SDS011;23341;50.296;18.960;2023-02-22T23:54:04;125.97;;;49.58;;
37485;SDS011;23341;50.296;18.960;2023-02-22T23:59:10;54.67;;;26.65;;
